createdAt,value
2024-02-07T00:01:32.125Z,6.50
2024-02-07T00:04:33.682Z,6.10
2024-02-07T00:07:56.239Z,7.10
2024-02-07T00:11:22.464Z,6.70
2024-02-07T00:14:59.111Z,8.40
2024-02-07T00:18:21.085Z,6.90
2024-02-07T00:22:05.873Z,7.40
2024-02-07T00:25:49.849Z,6.80
2024-02-07T00:29:10.427Z,7.30
2024-02-07T00:32:42.215Z,7.00
2024-02-07T00:36:13.165Z,6.50
2024-02-07T00:39:50.499Z,6.10
2024-02-07T00:43:32.759Z,5.90
2024-02-07T00:57:50.003Z,6.80
2024-02-07T01:04:55.689Z,7.00
2024-02-07T01:08:09.247Z,7.70
2024-02-07T01:15:48.441Z,7.00
2024-02-07T01:22:41.152Z,8.70
2024-02-07T01:26:08.237Z,7.50
2024-02-07T01:29:36.387Z,8.00
2024-02-07T01:33:26.469Z,9.40
2024-02-07T01:37:06.941Z,8.50
2024-02-07T01:40:36.921Z,9.30
2024-02-07T01:44:16.358Z,14.70
2024-02-07T01:47:57.883Z,8.80
2024-02-07T01:51:35.129Z,9.60
2024-02-07T01:55:16.297Z,10.00
2024-02-07T01:58:49.878Z,9.00
2024-02-07T02:02:35.793Z,8.30
2024-02-07T02:06:28.628Z,7.30
2024-02-07T02:43:04.857Z,7.10
2024-02-07T02:46:30.865Z,7.20
2024-02-07T02:50:11.460Z,7.20
2024-02-07T02:53:56.463Z,6.80
2024-02-07T02:57:49.022Z,7.10
2024-02-07T03:12:50.910Z,7.80
2024-02-07T03:16:43.344Z,7.70
2024-02-07T03:20:31.976Z,7.50
2024-02-07T03:24:16.335Z,10.20
2024-02-07T03:43:25.294Z,15.10
2024-02-07T03:47:18.176Z,12.10
2024-02-07T03:51:16.461Z,14.50
2024-02-07T03:55:14.957Z,11.20
2024-02-07T04:11:04.068Z,15.00
2024-02-07T04:14:36.484Z,13.30
2024-02-07T04:18:33.340Z,13.30
2024-02-07T04:22:22.302Z,14.10
2024-02-07T04:26:14.866Z,12.90
2024-02-07T04:29:58.334Z,15.00
2024-02-07T04:33:27.046Z,12.50
2024-02-07T04:37:14.787Z,13.80
2024-02-07T04:44:22.147Z,12.70
2024-02-07T04:51:57.239Z,12.50
2024-02-07T04:55:41.361Z,11.90
2024-02-07T04:59:33.862Z,12.40
2024-02-07T05:03:24.012Z,13.30
2024-02-07T05:07:16.505Z,12.10
2024-02-07T05:11:07.414Z,13.00
2024-02-07T05:14:51.267Z,12.60
2024-02-07T05:18:44.650Z,10.90
2024-02-07T05:22:37.337Z,15.00
2024-02-07T05:26:32.022Z,19.10
2024-02-07T05:41:46.006Z,10.40
2024-02-07T05:45:38.875Z,15.10
2024-02-07T05:49:31.035Z,15.90
2024-02-07T06:05:08.459Z,18.90
2024-02-07T06:08:52.955Z,18.20
2024-02-07T06:12:46.218Z,15.70
2024-02-07T06:28:26.350Z,14.90
2024-02-07T06:32:08.166Z,13.80
2024-02-07T06:36:00.582Z,15.20
2024-02-07T06:47:57.556Z,14.30
2024-02-07T06:51:42.557Z,14.50
2024-02-07T06:55:35.199Z,22.80
2024-02-07T06:59:27.404Z,25.30
2024-02-07T07:18:42.337Z,38.60
2024-02-07T07:22:01.103Z,35.50
2024-02-07T07:25:53.506Z,33.80
2024-02-07T07:29:18.841Z,37.30
2024-02-07T07:33:11.495Z,36.80
2024-02-07T08:37:29.355Z,22.30
2024-02-07T08:40:15.699Z,20.00
2024-02-07T08:43:08.870Z,9.10
2024-02-07T08:45:49.956Z,15.20
2024-02-07T08:48:50.977Z,24.00
2024-02-07T08:51:37.527Z,20.60
2024-02-07T08:54:37.100Z,20.60
2024-02-07T08:57:37.502Z,19.90
2024-02-07T09:00:38.489Z,16.50
2024-02-07T09:03:29.533Z,15.10
2024-02-07T09:06:12.238Z,14.70
2024-02-07T09:09:08.916Z,10.60
2024-02-07T09:11:51.267Z,9.40
2024-02-07T09:14:59.179Z,9.00
2024-02-07T09:17:35.748Z,9.40
2024-02-07T09:20:55.685Z,9.70
2024-02-07T09:23:33.386Z,9.40
2024-02-07T09:26:17.813Z,13.40
2024-02-07T09:29:00.831Z,11.30
2024-02-07T09:31:41.429Z,9.90
2024-02-07T09:34:12.145Z,9.00
2024-02-07T09:36:47.167Z,9.80
2024-02-07T09:39:32.905Z,10.30
2024-02-07T09:42:13.894Z,9.60
2024-02-07T09:44:52.436Z,10.70
2024-02-07T09:47:29.155Z,10.20
2024-02-07T09:50:03.889Z,11.00
2024-02-07T09:52:38.470Z,11.70
2024-02-07T09:55:17.535Z,11.30
2024-02-07T09:57:57.290Z,12.20
2024-02-07T10:01:08.901Z,11.70
2024-02-07T10:03:57.215Z,12.40
2024-02-07T10:06:30.217Z,12.90
2024-02-07T10:09:07.230Z,11.80
2024-02-07T10:11:41.608Z,11.20
2024-02-07T10:14:13.422Z,11.70
2024-02-07T10:16:49.520Z,10.80
2024-02-07T10:19:23.015Z,10.80
2024-02-07T10:21:56.472Z,9.90
2024-02-07T10:24:37.147Z,10.90
2024-02-07T10:27:19.474Z,10.80
2024-02-07T10:30:03.525Z,10.70
2024-02-07T10:32:53.760Z,11.70
2024-02-07T10:35:28.502Z,9.30
2024-02-07T10:38:13.282Z,10.70
2024-02-07T10:41:04.449Z,10.50
2024-02-07T10:43:48.952Z,9.90
2024-02-07T10:46:25.773Z,9.80
2024-02-07T10:49:00.117Z,8.60
2024-02-07T10:51:40.382Z,9.40
2024-02-07T10:54:27.273Z,10.00
2024-02-07T10:57:05.597Z,8.90
2024-02-07T10:59:59.100Z,9.30
2024-02-07T11:02:42.137Z,8.70
2024-02-07T11:05:43.509Z,8.60
2024-02-07T11:08:28.747Z,8.90
2024-02-07T11:11:22.597Z,8.20
2024-02-07T11:14:21.404Z,8.00
2024-02-07T11:17:00.721Z,9.10
2024-02-07T11:20:26.929Z,7.70
2024-02-07T11:23:14.303Z,8.00
2024-02-07T11:25:49.548Z,7.20
2024-02-07T11:28:33.259Z,7.80
2024-02-07T11:31:14.644Z,7.60
2024-02-07T11:34:00.223Z,7.80
2024-02-07T11:37:03.512Z,7.60
2024-02-07T11:40:10.676Z,7.20
2024-02-07T11:42:44.233Z,6.60
2024-02-07T11:45:24.264Z,7.20
2024-02-07T11:48:21.424Z,7.30
2024-02-07T11:51:06.553Z,8.00
2024-02-07T11:53:43.355Z,7.20
2024-02-07T11:56:15.336Z,6.90
2024-02-07T11:58:59.203Z,6.80
2024-02-07T12:01:36.981Z,6.70
2024-02-07T12:04:11.678Z,7.10
2024-02-07T12:06:53.261Z,7.00
2024-02-07T12:09:28.944Z,6.70
2024-02-07T12:12:00.797Z,6.80
2024-02-07T12:14:31.340Z,7.10
2024-02-07T12:17:05.693Z,7.10
2024-02-07T12:19:38.182Z,6.80
2024-02-07T12:22:20.073Z,6.50
2024-02-07T12:24:53.741Z,6.50
2024-02-07T12:27:26.268Z,7.10
2024-02-07T12:30:00.692Z,6.90
2024-02-07T12:32:41.433Z,5.60
2024-02-07T12:35:13.508Z,5.40
2024-02-07T12:38:01.387Z,6.80
2024-02-07T12:40:32.614Z,6.10
2024-02-07T12:43:06.071Z,6.50
2024-02-07T12:45:39.801Z,5.80
2024-02-07T12:48:43.596Z,6.00
2024-02-07T12:51:26.174Z,6.30
2024-02-07T12:53:57.715Z,5.60
2024-02-07T12:56:38.141Z,6.10
2024-02-07T12:59:11.392Z,9.00
2024-02-07T13:01:54.130Z,5.60
2024-02-07T13:04:24.472Z,5.30
2024-02-07T13:06:58.188Z,10.00
2024-02-07T13:09:50.143Z,7.70
2024-02-07T13:12:27.423Z,5.30
2024-02-07T13:15:28.249Z,8.60
2024-02-07T13:18:16.652Z,4.80
2024-02-07T13:21:03.535Z,5.20
2024-02-07T13:23:35.939Z,5.70
2024-02-07T13:26:10.396Z,5.00
2024-02-07T13:28:46.046Z,5.50
2024-02-07T13:31:29.610Z,4.60
2024-02-07T13:34:02.806Z,5.20
2024-02-07T13:36:33.285Z,5.80
2024-02-07T13:39:19.948Z,5.60
2024-02-07T13:42:01.232Z,6.70
2024-02-07T13:44:49.852Z,5.00
2024-02-07T13:47:32.946Z,6.40
2024-02-07T13:50:17.233Z,6.60
2024-02-07T13:52:56.193Z,5.40
2024-02-07T13:55:29.438Z,5.50
2024-02-07T13:58:03.029Z,5.30
2024-02-07T14:00:59.569Z,5.80
2024-02-07T14:03:29.772Z,5.60
2024-02-07T14:06:15.773Z,5.30
2024-02-07T14:08:54.469Z,5.40
2024-02-07T14:11:34.293Z,5.20
2024-02-07T14:14:06.889Z,5.60
2024-02-07T14:17:04.242Z,5.40
2024-02-07T14:19:47.719Z,5.80
2024-02-07T14:22:31.275Z,5.50
2024-02-07T14:25:09.537Z,7.40
2024-02-07T14:27:43.288Z,8.30
2024-02-07T14:30:28.735Z,5.40
2024-02-07T14:33:26.665Z,5.60
2024-02-07T14:35:56.975Z,4.70
2024-02-07T14:38:31.245Z,5.80
2024-02-07T14:41:05.249Z,5.50
2024-02-07T14:44:00.156Z,5.40
2024-02-07T14:47:07.943Z,10.40
2024-02-07T14:50:11.040Z,8.90
2024-02-07T14:52:46.122Z,7.00
2024-02-07T14:55:47.154Z,8.10
2024-02-07T15:01:42.342Z,6.10
2024-02-07T15:04:14.412Z,8.20
2024-02-07T15:07:01.719Z,7.80
2024-02-07T15:09:50.801Z,5.50
2024-02-07T15:12:25.520Z,4.80
2024-02-07T15:15:14.175Z,5.80
2024-02-07T15:18:11.467Z,5.30
2024-02-07T15:21:08.981Z,5.00
2024-02-07T15:24:16.016Z,4.80
2024-02-07T15:27:13.168Z,6.50
2024-02-07T15:30:08.283Z,5.30
2024-02-07T15:32:46.469Z,4.90
2024-02-07T15:35:42.510Z,4.40
2024-02-07T15:38:20.595Z,7.10
2024-02-07T15:41:28.792Z,7.80
2024-02-07T15:43:59.312Z,5.20
2024-02-07T15:47:18.153Z,5.10
2024-02-07T15:49:53.448Z,4.40
2024-02-07T15:52:37.712Z,5.40
2024-02-07T15:55:41.498Z,4.90
2024-02-07T15:58:33.557Z,5.10
2024-02-07T16:01:09.497Z,5.20
2024-02-07T16:03:42.638Z,4.80
2024-02-07T16:06:17.188Z,6.50
2024-02-07T16:09:33.431Z,5.20
2024-02-07T16:12:06.197Z,4.60
2024-02-07T16:15:08.683Z,4.20
2024-02-07T16:17:49.185Z,4.50
2024-02-07T16:20:36.850Z,4.50
2024-02-07T16:23:38.765Z,4.30
2024-02-07T16:26:34.819Z,4.80
2024-02-07T16:29:18.691Z,4.60
2024-02-07T16:32:06.547Z,4.20
2024-02-07T16:35:12.241Z,4.20
2024-02-07T16:37:56.459Z,4.20
2024-02-07T16:40:35.000Z,4.60
2024-02-07T16:43:14.334Z,4.20
2024-02-07T16:45:54.049Z,4.20
2024-02-07T16:48:49.981Z,4.40
2024-02-07T16:51:36.221Z,4.20
2024-02-07T16:54:14.345Z,4.80
2024-02-07T16:57:08.839Z,5.90
2024-02-07T17:00:04.930Z,5.90
2024-02-07T17:02:46.386Z,5.70
2024-02-07T17:05:36.173Z,4.90
2024-02-07T17:08:32.661Z,4.60
2024-02-07T17:11:36.363Z,6.10
2024-02-07T17:14:27.593Z,6.00
2024-02-07T17:17:07.475Z,5.60
2024-02-07T17:19:46.593Z,8.30
2024-02-07T17:22:49.000Z,6.00
2024-02-07T17:25:37.409Z,6.00
2024-02-07T17:28:22.928Z,6.40
2024-02-07T17:31:14.154Z,5.80
2024-02-07T17:33:51.217Z,7.60
2024-02-07T17:36:33.855Z,7.30
2024-02-07T17:39:36.712Z,7.40
2024-02-07T17:42:29.419Z,7.10
2024-02-07T17:45:40.068Z,6.80
2024-02-07T17:48:15.727Z,6.90
2024-02-07T17:51:12.480Z,7.70
2024-02-07T17:54:39.241Z,7.20
2024-02-07T17:57:21.569Z,7.90
2024-02-07T17:59:55.213Z,7.60
2024-02-07T18:03:00.353Z,7.60
2024-02-07T18:05:51.267Z,9.20
2024-02-07T18:08:33.451Z,7.90
2024-02-07T18:11:43.979Z,8.40
2024-02-07T18:14:54.954Z,9.20
2024-02-07T18:20:26.754Z,8.00
2024-02-07T18:23:51.275Z,8.30
2024-02-07T18:27:20.601Z,8.60
2024-02-07T18:30:08.186Z,7.70
2024-02-07T18:32:56.879Z,7.50
2024-02-07T18:36:13.423Z,8.00
2024-02-07T18:39:07.258Z,7.70
2024-02-07T18:41:52.484Z,8.30
2024-02-07T18:44:40.236Z,7.50
2024-02-07T18:47:24.605Z,6.80
2024-02-07T18:50:03.536Z,8.60
2024-02-07T18:52:42.316Z,8.10
2024-02-07T18:55:28.238Z,7.60
2024-02-07T18:58:19.129Z,9.60
2024-02-07T19:01:16.923Z,8.60
2024-02-07T19:03:55.565Z,8.90
2024-02-07T19:06:40.449Z,8.30
2024-02-07T19:09:30.530Z,7.80
2024-02-07T19:12:44.270Z,8.90
2024-02-07T19:15:44.821Z,8.20
2024-02-07T19:18:24.228Z,7.10
2024-02-07T19:21:31.857Z,7.60
2024-02-07T19:24:38.897Z,7.50
2024-02-07T19:27:24.557Z,7.50
2024-02-07T19:30:13.486Z,7.60
2024-02-07T19:33:07.302Z,6.60
2024-02-07T19:36:26.025Z,7.10
2024-02-07T19:39:58.281Z,7.30
2024-02-07T19:42:53.865Z,6.70
2024-02-07T19:45:47.835Z,6.30
2024-02-07T19:48:45.690Z,6.40
2024-02-07T19:51:24.642Z,6.20
2024-02-07T19:54:21.143Z,6.40
2024-02-07T19:57:22.054Z,6.50
2024-02-07T20:00:05.900Z,5.80
2024-02-07T20:02:51.986Z,6.40
2024-02-07T20:05:25.915Z,6.30
2024-02-07T20:08:15.603Z,6.30
2024-02-07T20:11:15.059Z,6.20
2024-02-07T20:13:51.733Z,6.70
2024-02-07T20:16:39.023Z,6.40
2024-02-07T20:19:29.683Z,6.30
2024-02-07T20:22:11.961Z,6.20
2024-02-07T20:24:55.192Z,6.40
2024-02-07T20:27:30.549Z,6.30
2024-02-07T20:30:03.425Z,6.50
2024-02-07T20:32:44.044Z,6.10
2024-02-07T20:35:27.210Z,6.30
2024-02-07T20:38:19.125Z,6.10
2024-02-07T20:40:52.427Z,5.90
2024-02-07T20:43:50.588Z,6.20
2024-02-07T20:46:27.090Z,6.20
2024-02-07T20:49:01.891Z,6.80
2024-02-07T20:51:36.358Z,6.40
2024-02-07T20:54:21.247Z,6.00
2024-02-07T20:56:59.775Z,5.80
2024-02-07T20:59:58.603Z,5.60
2024-02-07T21:02:41.792Z,5.80
2024-02-07T21:05:21.012Z,6.60
2024-02-07T21:08:22.252Z,6.20
2024-02-07T21:11:18.722Z,6.30
2024-02-07T21:14:16.131Z,5.80
2024-02-07T21:16:52.950Z,6.30
2024-02-07T21:19:36.979Z,5.10
2024-02-07T21:22:26.846Z,6.50
2024-02-07T21:25:10.819Z,6.20
2024-02-07T21:27:41.512Z,5.90
2024-02-07T21:30:37.299Z,6.10
2024-02-07T21:33:30.861Z,6.70
2024-02-07T21:36:31.851Z,6.90
2024-02-07T21:39:11.718Z,6.20
2024-02-07T21:42:24.285Z,5.90
2024-02-07T21:45:11.819Z,6.50
2024-02-07T21:47:55.222Z,6.30
2024-02-07T21:50:34.248Z,7.00
2024-02-07T21:53:08.408Z,6.30
2024-02-07T22:05:10.480Z,6.00
2024-02-07T22:08:19.165Z,6.30
2024-02-07T22:11:29.453Z,6.60
2024-02-07T22:14:13.620Z,7.30
2024-02-07T22:17:12.630Z,7.20
2024-02-07T22:20:02.503Z,5.90
2024-02-07T22:22:54.675Z,6.00
2024-02-07T22:25:44.637Z,6.70
2024-02-07T22:28:26.061Z,5.70
2024-02-07T22:31:20.840Z,6.30
2024-02-07T22:34:29.658Z,6.90
2024-02-07T22:37:40.450Z,5.50
2024-02-07T22:40:35.851Z,6.50
2024-02-07T22:46:07.388Z,7.00
2024-02-07T22:49:05.999Z,7.30
2024-02-07T22:52:24.992Z,6.60
2024-02-07T22:55:09.084Z,6.90
2024-02-07T22:57:52.868Z,6.10
2024-02-07T23:00:51.778Z,6.60
2024-02-07T23:04:06.469Z,6.50
2024-02-07T23:06:54.087Z,6.80
2024-02-07T23:09:33.676Z,5.00
2024-02-07T23:12:22.830Z,5.10
2024-02-07T23:15:36.160Z,5.20
2024-02-07T23:19:08.709Z,5.90
2024-02-07T23:21:58.406Z,5.70
2024-02-07T23:25:22.466Z,5.80
2024-02-07T23:28:23.564Z,5.10
2024-02-07T23:32:01.187Z,5.90
2024-02-07T23:34:54.316Z,6.00
2024-02-07T23:38:07.715Z,5.00
2024-02-07T23:40:57.037Z,6.00
2024-02-07T23:44:00.131Z,5.50
2024-02-07T23:46:51.496Z,4.90
2024-02-07T23:50:03.732Z,6.00
2024-02-07T23:53:04.354Z,6.30
2024-02-07T23:55:51.439Z,5.90
2024-02-07T23:58:50.201Z,5.70
